createdAt,value
2022-08-21T00:02:02.809Z,7.38
2022-08-21T00:04:57.725Z,8.55
2022-08-21T00:07:43.737Z,7.05
2022-08-21T00:10:29.654Z,7.55
2022-08-21T00:13:16.919Z,8.02
2022-08-21T00:16:05.558Z,7.45
2022-08-21T00:18:51.340Z,7.88
2022-08-21T00:21:37.652Z,7.60
2022-08-21T00:24:24.902Z,7.18
2022-08-21T00:27:10.994Z,7.65
2022-08-21T00:29:57.061Z,7.93
2022-08-21T00:32:43.558Z,8.48
2022-08-21T00:35:34.167Z,7.38
2022-08-21T00:38:20.121Z,7.18
2022-08-21T00:41:29.865Z,7.90
2022-08-21T00:44:15.536Z,7.22
2022-08-21T00:47:01.547Z,7.70
2022-08-21T00:49:47.340Z,7.63
2022-08-21T00:52:35.200Z,8.02
2022-08-21T00:55:23.473Z,7.82
2022-08-21T00:58:11.330Z,8.48
2022-08-21T01:00:57.466Z,7.85
2022-08-21T01:03:44.124Z,7.95
2022-08-21T01:06:31.646Z,8.57
2022-08-21T01:09:17.617Z,8.60
2022-08-21T01:12:04.530Z,8.35
2022-08-21T01:14:50.529Z,8.70
2022-08-21T01:17:36.871Z,8.88
2022-08-21T01:20:32.183Z,8.98
2022-08-21T01:23:18.516Z,9.13
2022-08-21T01:26:04.849Z,8.32
2022-08-21T01:28:57.840Z,8.57
2022-08-21T01:31:44.294Z,8.02
2022-08-21T01:34:30.274Z,8.18
2022-08-21T01:37:17.893Z,7.97
2022-08-21T01:40:05.776Z,7.43
2022-08-21T01:42:52.193Z,8.32
2022-08-21T01:45:38.453Z,7.90
2022-08-21T01:48:24.621Z,8.32
2022-08-21T01:51:10.954Z,8.13
2022-08-21T01:53:56.732Z,7.65
2022-08-21T01:56:48.085Z,10.68
2022-08-21T01:59:35.585Z,12.27
2022-08-21T02:02:21.826Z,11.32
2022-08-21T02:05:09.345Z,11.73
2022-08-21T02:07:56.506Z,11.20
2022-08-21T02:10:42.377Z,12.32
2022-08-21T02:13:34.876Z,11.00
2022-08-21T02:16:20.922Z,10.80
2022-08-21T02:19:08.300Z,10.98
2022-08-21T02:21:54.210Z,11.07
2022-08-21T02:24:54.801Z,11.23
2022-08-21T02:27:43.627Z,10.43
2022-08-21T02:30:35.116Z,11.48
2022-08-21T02:33:21.243Z,11.88
2022-08-21T02:36:08.845Z,11.30
2022-08-21T02:38:55.129Z,13.38
2022-08-21T02:41:41.262Z,12.90
2022-08-21T02:44:34.262Z,12.70
2022-08-21T02:47:21.017Z,12.43
2022-08-21T02:50:08.661Z,13.60
2022-08-21T02:52:55.459Z,12.75
2022-08-21T02:55:41.771Z,14.43
2022-08-21T02:58:34.204Z,14.35
2022-08-21T03:01:21.442Z,13.85
2022-08-21T03:04:07.258Z,13.93
2022-08-21T03:06:53.310Z,14.52
2022-08-21T03:09:39.450Z,13.90
2022-08-21T03:12:37.284Z,13.85
2022-08-21T03:15:24.839Z,11.75
2022-08-21T03:18:11.823Z,12.93
2022-08-21T03:20:58.096Z,12.40
2022-08-21T03:23:43.998Z,11.73
2022-08-21T03:26:30.492Z,10.45
2022-08-21T03:29:17.358Z,10.32
2022-08-21T03:32:03.386Z,11.13
2022-08-21T03:34:49.725Z,11.25
2022-08-21T03:37:35.732Z,11.13
2022-08-21T03:40:23.529Z,11.00
2022-08-21T03:43:10.581Z,11.57
2022-08-21T03:45:56.985Z,13.10
2022-08-21T03:48:42.749Z,14.52
2022-08-21T03:51:28.732Z,12.07
2022-08-21T03:54:14.764Z,13.82
2022-08-21T03:57:01.041Z,12.98
2022-08-21T03:59:47.879Z,13.18
2022-08-21T04:02:34.397Z,13.38
2022-08-21T04:05:31.133Z,13.80
2022-08-21T04:08:21.092Z,15.95
2022-08-21T04:11:07.394Z,17.02
2022-08-21T04:13:53.592Z,18.10
2022-08-21T04:16:39.507Z,14.18
2022-08-21T04:19:25.385Z,13.38
2022-08-21T04:22:11.597Z,13.48
2022-08-21T04:24:57.641Z,13.07
2022-08-21T04:27:43.681Z,14.23
2022-08-21T04:30:32.667Z,14.68
2022-08-21T04:33:18.750Z,13.65
2022-08-21T04:36:05.942Z,15.52
2022-08-21T04:38:51.854Z,15.00
2022-08-21T04:41:38.699Z,16.45
2022-08-21T04:44:24.835Z,15.38
2022-08-21T04:47:10.822Z,16.45
2022-08-21T04:49:56.629Z,16.00
2022-08-21T04:52:42.706Z,12.43
2022-08-21T04:55:29.493Z,11.68
2022-08-21T04:58:18.445Z,11.88
2022-08-21T05:01:05.939Z,12.23
2022-08-21T05:03:54.697Z,12.30
2022-08-21T05:06:43.055Z,13.40
2022-08-21T05:09:29.434Z,13.88
2022-08-21T05:12:15.596Z,13.77
2022-08-21T05:15:01.865Z,14.23
2022-08-21T05:17:55.451Z,14.77
2022-08-21T05:20:47.292Z,15.98
2022-08-21T05:23:33.744Z,15.90
2022-08-21T05:26:19.660Z,17.48
2022-08-21T05:29:11.802Z,16.02
2022-08-21T05:31:59.242Z,17.55
2022-08-21T05:34:45.126Z,17.45
2022-08-21T05:37:30.962Z,17.83
2022-08-21T05:40:22.308Z,18.40
2022-08-21T05:45:55.000Z,18.88
2022-08-21T06:10:12.073Z,21.48
2022-08-21T06:12:58.093Z,22.27
2022-08-21T06:15:44.741Z,22.75
2022-08-21T06:18:30.714Z,23.10
2022-08-21T06:21:17.140Z,24.30
2022-08-21T06:24:03.228Z,21.88
2022-08-21T06:26:49.346Z,22.45
2022-08-21T06:29:44.380Z,22.77
2022-08-21T06:32:30.785Z,22.75
2022-08-21T06:35:16.593Z,22.80
2022-08-21T06:38:03.356Z,21.77
2022-08-21T06:40:49.520Z,22.15
2022-08-21T06:43:39.895Z,21.33
2022-08-21T06:46:27.929Z,21.60
2022-08-21T06:49:17.510Z,20.98
2022-08-21T06:52:12.241Z,19.90
2022-08-21T06:54:58.492Z,18.63
2022-08-21T06:57:47.909Z,18.60
2022-08-21T07:00:43.967Z,18.08
2022-08-21T07:03:41.223Z,18.35
2022-08-21T07:06:27.049Z,17.73
2022-08-21T07:09:13.646Z,17.33
2022-08-21T07:11:59.764Z,17.40
2022-08-21T07:14:45.953Z,17.52
2022-08-21T07:17:31.793Z,18.13
2022-08-21T07:20:17.916Z,16.13
2022-08-21T07:23:09.726Z,16.02
2022-08-21T07:25:55.941Z,15.77
2022-08-21T07:28:42.582Z,13.95
2022-08-21T07:31:29.033Z,13.07
2022-08-21T07:34:15.638Z,11.80
2022-08-21T07:37:09.855Z,12.52
2022-08-21T07:39:56.093Z,11.98
2022-08-21T07:42:43.785Z,10.55
2022-08-21T07:45:30.549Z,10.80
2022-08-21T07:48:17.223Z,11.70
2022-08-21T07:51:07.597Z,11.00
2022-08-21T07:53:55.258Z,11.93
2022-08-21T07:56:41.431Z,10.90
2022-08-21T07:59:27.366Z,11.57
2022-08-21T08:02:34.480Z,11.05
2022-08-21T08:05:26.045Z,11.18
2022-08-21T08:08:12.153Z,12.32
2022-08-21T08:10:59.324Z,12.57
2022-08-21T08:13:47.961Z,11.82
2022-08-21T08:16:34.177Z,11.50
2022-08-21T08:19:20.169Z,11.57
2022-08-21T08:22:26.342Z,10.95
2022-08-21T08:25:14.617Z,12.48
2022-08-21T08:28:00.786Z,11.73
2022-08-21T08:30:47.494Z,11.50
2022-08-21T08:33:33.303Z,11.57
2022-08-21T08:36:20.098Z,11.43
2022-08-21T08:39:06.408Z,11.75
2022-08-21T08:42:32.043Z,11.20
2022-08-21T08:45:25.328Z,10.43
2022-08-21T08:48:14.744Z,10.40
2022-08-21T08:51:02.157Z,11.45
2022-08-21T08:53:55.940Z,10.82
2022-08-21T08:56:41.761Z,11.85
2022-08-21T08:59:31.530Z,11.18
2022-08-21T09:02:18.347Z,10.50
2022-08-21T10:04:24.400Z,10.07
2022-08-21T10:07:12.300Z,9.63
2022-08-21T10:10:15.068Z,10.63
2022-08-21T10:13:10.177Z,11.32
2022-08-21T10:16:17.342Z,10.38
2022-08-21T10:19:40.771Z,9.20
2022-08-21T10:22:51.895Z,10.25
2022-08-21T10:26:14.298Z,10.10
2022-08-21T10:29:39.262Z,9.10
2022-08-21T10:32:29.047Z,9.07
2022-08-21T10:35:38.285Z,8.57
2022-08-21T10:39:23.413Z,9.05
2022-08-21T10:42:07.737Z,9.32
2022-08-21T10:45:14.481Z,9.07
2022-08-21T10:48:09.834Z,8.40
2022-08-21T10:54:25.042Z,9.75
2022-08-21T10:57:32.276Z,8.35
2022-08-21T11:00:23.976Z,8.18
2022-08-21T11:03:10.089Z,9.47
2022-08-21T11:06:00.890Z,9.90
2022-08-21T11:08:52.305Z,7.50
2022-08-21T11:11:59.138Z,7.77
2022-08-21T11:15:28.689Z,7.85
2022-08-21T11:18:21.549Z,6.90
2022-08-21T11:21:40.654Z,6.72
2022-08-21T11:24:29.461Z,6.30
2022-08-21T11:27:26.300Z,6.93
2022-08-21T11:30:13.481Z,6.40
2022-08-21T11:33:24.267Z,6.47
2022-08-21T11:36:19.781Z,6.57
2022-08-21T11:39:05.648Z,6.60
2022-08-21T11:42:07.038Z,7.05
2022-08-21T11:45:28.168Z,6.53
2022-08-21T11:48:33.597Z,6.68
2022-08-21T11:51:29.922Z,6.45
2022-08-21T11:54:35.196Z,6.40
2022-08-21T11:57:30.051Z,6.43
2022-08-21T12:00:30.844Z,6.60
2022-08-21T12:03:34.825Z,6.22
2022-08-21T12:06:31.818Z,6.85
2022-08-21T12:09:26.941Z,6.90
2022-08-21T12:12:45.438Z,6.90
2022-08-21T12:15:31.392Z,6.43
2022-08-21T12:18:44.187Z,6.82
2022-08-21T12:21:29.952Z,6.15
2022-08-21T12:24:15.907Z,6.57
2022-08-21T12:27:31.236Z,6.28
2022-08-21T12:30:35.538Z,6.50
2022-08-21T12:33:38.753Z,6.65
2022-08-21T12:36:29.406Z,6.72
2022-08-21T12:39:22.232Z,7.20
2022-08-21T12:42:20.424Z,6.40
2022-08-21T12:45:19.129Z,6.07
2022-08-21T12:48:14.623Z,6.80
2022-08-21T12:51:49.845Z,6.43
2022-08-21T12:54:42.648Z,7.07
2022-08-21T12:57:31.003Z,6.70
2022-08-21T13:00:23.227Z,6.45
2022-08-21T13:03:09.893Z,6.55
2022-08-21T13:05:56.075Z,6.57
2022-08-21T13:08:47.246Z,6.75
2022-08-21T13:11:34.240Z,7.28
2022-08-21T13:14:45.216Z,7.00
2022-08-21T13:17:35.743Z,5.47
2022-08-21T13:20:29.051Z,4.57
2022-08-21T13:23:27.705Z,4.00
2022-08-21T13:26:21.977Z,3.70
2022-08-21T13:29:13.476Z,3.25
2022-08-21T13:32:03.619Z,2.92
2022-08-21T13:34:51.421Z,2.80
2022-08-21T13:37:42.577Z,3.10
2022-08-21T13:40:41.130Z,3.78
2022-08-21T13:43:31.611Z,4.05
2022-08-21T13:46:19.772Z,4.18
2022-08-21T13:49:07.568Z,3.53
2022-08-21T13:51:54.034Z,3.50
2022-08-21T13:54:45.975Z,3.40
2022-08-21T13:57:34.761Z,3.17
2022-08-21T14:00:28.081Z,2.85
2022-08-21T14:03:30.233Z,2.53
2022-08-21T14:06:23.090Z,2.55
2022-08-21T14:09:32.156Z,2.20
2022-08-21T14:12:25.846Z,1.83
2022-08-21T14:15:16.208Z,1.50
2022-08-21T14:18:17.673Z,1.50
2022-08-21T14:21:08.249Z,1.88
2022-08-21T14:24:04.689Z,1.70
2022-08-21T14:26:57.338Z,1.65
2022-08-21T14:29:44.988Z,1.60
2022-08-21T14:32:39.158Z,1.77
2022-08-21T14:35:32.493Z,1.60
2022-08-21T14:38:21.229Z,1.40
2022-08-21T14:41:17.788Z,1.70
2022-08-21T14:44:09.364Z,1.33
2022-08-21T14:46:57.223Z,1.42
2022-08-21T14:49:43.819Z,2.00
2022-08-21T14:52:29.904Z,1.85
2022-08-21T14:55:17.068Z,2.00
2022-08-21T14:58:03.402Z,2.35
2022-08-21T15:00:54.214Z,1.77
2022-08-21T15:03:40.806Z,1.77
2022-08-21T15:06:27.039Z,1.42
2022-08-21T15:09:13.495Z,1.40
2022-08-21T15:12:01.673Z,1.70
2022-08-21T15:14:48.478Z,1.35
2022-08-21T15:17:35.362Z,1.45
2022-08-21T15:20:21.987Z,1.73
2022-08-21T15:23:13.070Z,1.88
2022-08-21T15:26:01.114Z,2.58
2022-08-21T15:28:48.500Z,2.00
2022-08-21T15:31:36.156Z,2.42
2022-08-21T15:34:27.100Z,2.17
2022-08-21T15:37:13.721Z,1.40
2022-08-21T15:40:00.462Z,1.27
2022-08-21T15:42:47.867Z,1.50
2022-08-21T15:45:35.304Z,1.30
2022-08-21T15:48:22.809Z,1.50
2022-08-21T15:51:12.585Z,1.77
2022-08-21T15:54:00.055Z,1.48
2022-08-21T15:56:50.984Z,1.77
2022-08-21T15:59:49.478Z,1.80
2022-08-21T16:02:36.292Z,1.90
2022-08-21T16:05:23.542Z,2.30
2022-08-21T16:08:11.818Z,2.35
2022-08-21T16:10:58.106Z,2.15
2022-08-21T16:13:45.840Z,2.90
2022-08-21T16:16:34.913Z,3.53
2022-08-21T16:19:21.981Z,4.50
2022-08-21T16:22:08.051Z,2.97
2022-08-21T16:24:54.295Z,2.97
2022-08-21T16:27:41.377Z,2.25
2022-08-21T16:30:31.073Z,2.28
2022-08-21T16:33:25.903Z,1.80
2022-08-21T16:36:13.184Z,2.63
2022-08-21T16:39:01.128Z,5.00
2022-08-21T16:41:49.646Z,3.47
2022-08-21T16:44:35.569Z,2.67
2022-08-21T16:47:27.076Z,1.85
2022-08-21T16:50:16.575Z,2.75
2022-08-21T16:53:02.585Z,2.55
2022-08-21T16:55:48.655Z,3.00
2022-08-21T16:58:37.769Z,2.55
2022-08-21T18:02:20.155Z,4.80
2022-08-21T18:05:08.993Z,5.00
2022-08-21T18:07:55.692Z,5.07
2022-08-21T18:10:45.011Z,4.60
2022-08-21T18:13:33.538Z,3.95
2022-08-21T18:16:20.201Z,3.80
2022-08-21T18:19:10.263Z,3.80
2022-08-21T18:21:58.814Z,3.70
2022-08-21T18:24:47.812Z,3.70
2022-08-21T18:27:34.080Z,3.47
2022-08-21T18:30:23.088Z,3.70
2022-08-21T18:33:09.653Z,4.68
2022-08-21T18:35:55.978Z,4.70
2022-08-21T18:38:43.881Z,5.53
2022-08-21T18:41:29.852Z,4.55
2022-08-21T18:44:48.822Z,6.07
2022-08-21T18:47:42.279Z,5.72
2022-08-21T18:50:29.264Z,5.45
2022-08-21T18:53:24.179Z,6.00
2022-08-21T18:56:15.601Z,5.78
2022-08-21T18:59:04.271Z,5.90
2022-08-21T19:01:50.442Z,6.07
2022-08-21T19:04:44.212Z,5.57
2022-08-21T19:07:31.109Z,5.60
2022-08-21T19:10:24.668Z,6.70
2022-08-21T19:13:17.210Z,6.15
2022-08-21T19:16:03.846Z,8.35
2022-08-21T19:18:49.911Z,9.68
2022-08-21T19:21:36.815Z,11.50
2022-08-21T19:24:23.438Z,10.75
2022-08-21T19:27:10.998Z,9.40
2022-08-21T19:29:57.235Z,7.38
2022-08-21T19:32:45.365Z,7.22
2022-08-21T19:35:31.453Z,8.57
2022-08-21T19:38:17.472Z,7.63
2022-08-21T19:41:04.399Z,7.50
2022-08-21T19:43:54.030Z,9.98
2022-08-21T19:46:41.387Z,8.07
2022-08-21T19:49:32.069Z,9.45
2022-08-21T19:52:19.630Z,8.70
2022-08-21T19:55:08.753Z,8.73
2022-08-21T19:57:56.177Z,10.15
2022-08-21T20:00:44.162Z,8.68
2022-08-21T20:03:30.117Z,9.27
2022-08-21T20:06:18.118Z,8.77
2022-08-21T20:09:08.422Z,9.15
2022-08-21T20:11:57.661Z,8.77
2022-08-21T20:14:46.014Z,8.70
2022-08-21T20:17:31.883Z,9.77
2022-08-21T20:20:18.657Z,8.07
2022-08-21T20:23:10.644Z,7.78
2022-08-21T20:25:57.277Z,8.20
2022-08-21T20:28:43.597Z,8.80
2022-08-21T20:31:30.129Z,8.98
2022-08-21T20:34:16.152Z,10.43
2022-08-21T20:37:02.509Z,8.25
2022-08-21T20:39:51.405Z,9.98
2022-08-21T20:42:38.993Z,10.00
2022-08-21T20:45:31.037Z,8.85
2022-08-21T20:48:23.678Z,8.90
2022-08-21T20:51:21.352Z,8.88
2022-08-21T20:54:33.471Z,10.88
2022-08-21T20:57:30.640Z,8.48
2022-08-21T21:00:19.045Z,8.43
2022-08-21T21:03:10.669Z,9.75
2022-08-21T21:06:03.948Z,8.98
2022-08-21T21:09:11.893Z,8.45
2022-08-21T21:12:00.615Z,8.93
2022-08-21T21:14:52.572Z,8.48
2022-08-21T21:17:45.123Z,9.18
2022-08-21T21:20:46.166Z,8.27
2022-08-21T21:23:32.020Z,8.35
2022-08-21T21:26:29.328Z,8.88
2022-08-21T21:29:18.599Z,8.32
2022-08-21T21:32:05.988Z,8.57
2022-08-21T21:34:52.097Z,8.93
2022-08-21T21:38:03.577Z,9.48
2022-08-21T21:41:15.875Z,9.05
2022-08-21T21:44:13.923Z,8.55
2022-08-21T21:47:34.214Z,9.90
2022-08-21T21:50:42.799Z,9.95
2022-08-21T21:53:51.481Z,9.25
2022-08-21T21:56:57.252Z,8.43
2022-08-21T21:59:46.472Z,8.35
2022-08-21T22:06:37.756Z,8.70
2022-08-21T22:09:42.364Z,8.32
2022-08-21T22:12:56.681Z,8.00
2022-08-21T22:15:56.641Z,7.85
2022-08-21T22:19:07.450Z,8.70
2022-08-21T22:22:12.699Z,8.27
2022-08-21T22:25:04.569Z,7.95
2022-08-21T22:28:01.035Z,8.00
2022-08-21T22:30:54.813Z,8.45
2022-08-21T22:33:41.310Z,7.70
2022-08-21T22:36:31.929Z,7.40
2022-08-21T22:39:27.364Z,7.28
2022-08-21T22:42:25.402Z,7.53
2022-08-21T22:45:12.339Z,7.13
2022-08-21T22:48:05.460Z,7.28
2022-08-21T22:51:10.678Z,7.18
2022-08-21T22:53:56.993Z,7.00
2022-08-21T22:56:45.381Z,6.35
2022-08-21T22:59:40.078Z,6.63
2022-08-21T23:02:52.218Z,6.72
2022-08-21T23:05:38.541Z,6.20
2022-08-21T23:08:34.575Z,5.50
2022-08-21T23:11:39.836Z,6.20
2022-08-21T23:14:26.611Z,6.78
2022-08-21T23:17:49.665Z,6.60
2022-08-21T23:23:31.492Z,5.80
2022-08-21T23:26:26.970Z,5.97
2022-08-21T23:30:02.051Z,5.78
2022-08-21T23:33:04.292Z,6.72
2022-08-21T23:36:30.005Z,6.30
2022-08-21T23:42:18.573Z,6.70
2022-08-21T23:45:24.365Z,7.28
2022-08-21T23:48:46.419Z,6.97
2022-08-21T23:51:41.362Z,6.18
2022-08-21T23:55:04.890Z,6.05
2022-08-21T23:58:09.128Z,6.47
